createdAt,value
2022-10-29T00:04:54.446Z,100.00
2022-10-29T00:09:58.131Z,100.00
2022-10-29T00:15:01.967Z,100.00
2022-10-29T00:25:14.850Z,100.00
2022-10-29T00:30:18.165Z,100.00
2022-10-29T00:35:23.019Z,100.00
2022-10-29T00:40:26.477Z,100.00
2022-10-29T00:45:29.714Z,100.00
2022-10-29T00:50:32.964Z,100.00
2022-10-29T00:55:36.284Z,100.00
2022-10-29T01:00:39.611Z,100.00
2022-10-29T01:05:44.631Z,100.00
2022-10-29T01:11:00.250Z,100.00
2022-10-29T01:16:25.266Z,100.00
2022-10-29T01:22:01.121Z,100.00
2022-10-29T01:27:24.568Z,100.00
2022-10-29T01:32:50.545Z,100.00
2022-10-29T01:38:02.890Z,100.00
2022-10-29T01:43:15.845Z,100.00
2022-10-29T01:48:33.528Z,100.00
2022-10-29T01:53:37.762Z,100.00
2022-10-29T01:58:45.047Z,100.00
2022-10-29T02:04:03.827Z,100.00
2022-10-29T02:09:22.638Z,100.00
2022-10-29T02:14:30.496Z,100.00
2022-10-29T02:19:34.909Z,100.00
2022-10-29T02:24:38.285Z,100.00
2022-10-29T02:29:41.892Z,100.00
2022-10-29T02:34:45.186Z,100.00
2022-10-29T02:39:48.489Z,100.00
2022-10-29T02:44:51.694Z,100.00
2022-10-29T02:49:55.007Z,100.00
2022-10-29T02:54:58.286Z,100.00
2022-10-29T03:00:01.561Z,100.00
2022-10-29T03:05:05.704Z,100.00
2022-10-29T03:10:09.291Z,100.00
2022-10-29T03:15:12.499Z,100.00
2022-10-29T03:20:15.749Z,100.00
2022-10-29T03:25:19.028Z,100.00
2022-10-29T03:30:23.324Z,100.00
2022-10-29T03:35:26.676Z,100.00
2022-10-29T03:40:30.007Z,100.00
2022-10-29T03:45:33.165Z,100.00
2022-10-29T03:50:36.368Z,100.00
2022-10-29T03:55:39.634Z,100.00
2022-10-29T04:00:42.921Z,100.00
2022-10-29T04:05:46.196Z,100.00
2022-10-29T04:10:50.725Z,100.00
2022-10-29T04:15:55.415Z,100.00
2022-10-29T04:23:10.859Z,100.00
2022-10-29T04:31:50.002Z,100.00
2022-10-29T04:36:54.030Z,100.00
2022-10-29T04:41:57.281Z,100.00
2022-10-29T04:47:01.149Z,100.00
2022-10-29T04:52:04.628Z,100.00
2022-10-29T04:57:07.929Z,100.00
2022-10-29T05:02:14.954Z,100.00
2022-10-29T05:07:22.701Z,100.00
2022-10-29T05:12:25.963Z,100.00
2022-10-29T05:17:29.912Z,100.00
2022-10-29T05:22:33.658Z,100.00
2022-10-29T05:27:36.942Z,100.00
2022-10-29T05:32:42.005Z,100.00
2022-10-29T05:37:57.268Z,100.00
2022-10-29T05:43:01.034Z,100.00
2022-10-29T05:48:05.170Z,100.00
2022-10-29T05:53:11.855Z,100.00
2022-10-29T05:58:15.257Z,100.00
2022-10-29T06:03:23.777Z,100.00
2022-10-29T06:08:27.172Z,100.00
2022-10-29T06:13:31.115Z,100.00
2022-10-29T06:18:34.389Z,100.00
2022-10-29T06:23:37.912Z,100.00
2022-10-29T06:28:41.285Z,100.00
2022-10-29T06:33:44.582Z,100.00
2022-10-29T06:38:47.831Z,100.00
2022-10-29T06:43:51.221Z,100.00
2022-10-29T06:48:54.536Z,100.00
2022-10-29T06:53:57.821Z,100.00
2022-10-29T06:59:01.079Z,100.00
2022-10-29T07:04:04.465Z,100.00
2022-10-29T07:09:07.808Z,100.00
2022-10-29T07:14:14.824Z,100.00
2022-10-29T07:19:18.795Z,100.00
2022-10-29T07:24:22.201Z,100.00
2022-10-29T07:29:30.340Z,100.00
2022-10-29T07:34:35.100Z,100.00
2022-10-29T07:39:38.806Z,100.00
2022-10-29T07:44:45.119Z,100.00
2022-10-29T07:49:50.809Z,100.00
2022-10-29T07:54:54.358Z,100.00
2022-10-29T08:00:06.920Z,100.00
2022-10-29T08:05:21.063Z,100.00
2022-10-29T08:10:50.265Z,100.00
2022-10-29T08:16:04.120Z,100.00
2022-10-29T08:21:11.711Z,100.00
2022-10-29T08:26:15.349Z,100.00
2022-10-29T08:31:29.126Z,100.00
2022-10-29T08:36:35.493Z,100.00
2022-10-29T08:41:59.984Z,100.00
2022-10-29T08:47:07.752Z,100.00
2022-10-29T08:52:24.951Z,100.00
2022-10-29T08:57:42.333Z,100.00
2022-10-29T09:03:00.592Z,100.00
2022-10-29T09:09:10.031Z,100.00
2022-10-29T09:14:36.805Z,100.00
2022-10-29T09:19:45.666Z,100.00
2022-10-29T09:25:08.931Z,100.00
2022-10-29T09:30:21.245Z,99.72
2022-10-29T09:35:53.934Z,99.57
2022-10-29T09:41:01.250Z,99.35
2022-10-29T09:46:10.078Z,98.32
2022-10-29T09:51:34.829Z,98.11
2022-10-29T09:56:42.967Z,96.54
2022-10-29T10:01:47.899Z,95.23
2022-10-29T10:07:11.186Z,94.80
2022-10-29T10:12:14.475Z,93.87
2022-10-29T10:17:17.688Z,93.98
2022-10-29T10:22:24.551Z,93.85
2022-10-29T10:27:31.772Z,93.24
2022-10-29T10:32:35.094Z,93.25
2022-10-29T10:37:38.563Z,92.65
2022-10-29T10:42:47.324Z,92.67
2022-10-29T10:47:58.591Z,91.11
2022-10-29T10:53:05.851Z,90.79
2022-10-29T10:58:20.500Z,90.44
2022-10-29T11:03:39.494Z,89.65
2022-10-29T11:08:53.627Z,89.90
2022-10-29T11:14:10.299Z,89.07
2022-10-29T11:19:36.751Z,87.67
2022-10-29T11:24:50.903Z,87.17
2022-10-29T11:29:58.363Z,85.96
2022-10-29T11:35:09.609Z,85.68
2022-10-29T11:40:24.880Z,84.47
2022-10-29T11:46:09.308Z,84.54
2022-10-29T11:51:29.606Z,84.51
2022-10-29T11:57:16.597Z,84.63
2022-10-29T12:03:03.527Z,84.22
2022-10-29T12:08:30.861Z,83.33
2022-10-29T12:14:04.879Z,83.04
2022-10-29T12:19:29.008Z,82.18
2022-10-29T12:25:10.522Z,82.00
2022-10-29T12:30:18.668Z,80.74
2022-10-29T12:35:40.336Z,81.05
2022-10-29T12:40:45.880Z,79.97
2022-10-29T12:46:19.189Z,81.25
2022-10-29T12:51:38.125Z,80.71
2022-10-29T12:56:43.926Z,80.62
2022-10-29T13:02:10.395Z,79.59
2022-10-29T13:13:01.899Z,79.83
2022-10-29T13:18:20.596Z,79.07
2022-10-29T13:23:27.865Z,79.56
2022-10-29T13:28:38.498Z,79.41
2022-10-29T13:33:42.438Z,79.45
2022-10-29T13:39:05.999Z,79.02
2022-10-29T13:44:22.914Z,78.52
2022-10-29T13:49:42.901Z,77.88
2022-10-29T13:55:03.013Z,78.03
2022-10-29T14:00:11.329Z,78.48
2022-10-29T14:05:32.380Z,78.45
2022-10-29T14:10:42.020Z,78.78
2022-10-29T14:16:08.016Z,79.00
2022-10-29T14:21:30.189Z,79.24
2022-10-29T14:26:35.946Z,79.64
2022-10-29T14:31:39.617Z,79.73
2022-10-29T14:36:46.171Z,80.08
2022-10-29T14:41:50.891Z,80.25
2022-10-29T14:46:58.750Z,80.52
2022-10-29T14:52:08.451Z,80.82
2022-10-29T14:57:15.498Z,81.02
2022-10-29T15:02:37.554Z,81.25
2022-10-29T15:07:41.992Z,81.71
2022-10-29T15:12:45.924Z,81.91
2022-10-29T15:18:05.886Z,82.32
2022-10-29T15:23:25.461Z,82.68
2022-10-29T15:28:31.298Z,83.03
2022-10-29T15:33:54.160Z,83.69
2022-10-29T15:39:21.210Z,84.02
2022-10-29T15:44:36.607Z,84.37
2022-10-29T15:49:42.344Z,84.68
2022-10-29T15:54:49.811Z,85.45
2022-10-29T15:59:57.587Z,85.81
2022-10-29T16:05:04.597Z,86.49
2022-10-29T16:10:17.452Z,86.97
2022-10-29T16:20:31.694Z,87.85
2022-10-29T16:25:36.443Z,88.51
2022-10-29T16:30:42.287Z,88.83
2022-10-29T16:35:46.089Z,88.96
2022-10-29T16:40:51.728Z,89.33
2022-10-29T16:46:02.535Z,89.67
2022-10-29T16:51:26.594Z,90.10
2022-10-29T16:56:38.934Z,90.44
2022-10-29T17:01:56.844Z,90.78
2022-10-29T17:07:42.147Z,91.02
2022-10-29T17:13:09.456Z,91.41
2022-10-29T17:18:48.713Z,91.97
2022-10-29T17:24:13.727Z,92.61
2022-10-29T17:29:30.306Z,92.71
2022-10-29T17:34:48.118Z,92.66
2022-10-29T17:40:28.043Z,92.96
2022-10-29T17:45:38.551Z,93.31
2022-10-29T17:50:58.199Z,93.79
2022-10-29T17:56:08.660Z,94.61
2022-10-29T18:01:13.807Z,94.43
2022-10-29T18:06:17.470Z,94.47
2022-10-29T18:11:26.853Z,94.96
2022-10-29T18:16:44.066Z,95.05
2022-10-29T18:21:51.968Z,95.21
2022-10-29T18:27:18.864Z,95.55
2022-10-29T18:32:56.834Z,95.60
2022-10-29T18:38:30.817Z,95.82
2022-10-29T18:44:04.954Z,95.92
2022-10-29T18:55:19.255Z,96.51
2022-10-29T19:00:44.902Z,96.67
2022-10-29T19:06:13.455Z,97.04
2022-10-29T19:12:18.782Z,97.06
2022-10-29T19:18:10.738Z,97.21
2022-10-29T19:23:27.000Z,97.35
2022-10-29T19:28:42.695Z,97.50
2022-10-29T19:33:50.281Z,97.42
2022-10-29T19:38:58.775Z,97.43
2022-10-29T19:44:06.072Z,97.59
2022-10-29T19:49:37.027Z,97.57
2022-10-29T19:54:53.911Z,97.26
2022-10-29T20:00:36.372Z,97.02
2022-10-29T20:05:49.440Z,97.03
2022-10-29T20:11:31.481Z,97.13
2022-10-29T20:16:56.197Z,97.06
2022-10-29T20:22:31.755Z,97.22
2022-10-29T20:27:59.229Z,97.31
2022-10-29T20:39:42.569Z,97.47
2022-10-29T20:45:16.987Z,97.54
2022-10-29T20:51:00.089Z,97.48
2022-10-29T20:56:46.767Z,97.58
2022-10-29T21:07:39.096Z,97.47
2022-10-29T21:19:31.955Z,97.58
2022-10-29T21:24:54.216Z,97.80
2022-10-29T21:30:13.441Z,97.71
2022-10-29T21:35:54.205Z,97.69
2022-10-29T21:41:03.125Z,98.04
2022-10-29T21:46:11.162Z,98.14
2022-10-29T21:51:26.324Z,98.58
2022-10-29T21:56:49.785Z,98.48
2022-10-29T22:02:12.306Z,98.96
2022-10-29T22:07:46.300Z,99.02
2022-10-29T22:13:09.185Z,98.45
2022-10-29T22:18:35.672Z,98.99
2022-10-29T22:23:46.804Z,98.73
2022-10-29T22:28:50.852Z,99.10
2022-10-29T22:33:58.683Z,99.75
2022-10-29T22:39:10.495Z,99.98
2022-10-29T22:44:19.631Z,100.00
2022-10-29T22:49:23.072Z,100.00
2022-10-29T22:54:31.488Z,100.00
2022-10-29T22:59:35.975Z,100.00
2022-10-29T23:04:44.968Z,100.00
2022-10-29T23:09:51.116Z,100.00
2022-10-29T23:14:54.495Z,100.00
2022-10-29T23:20:05.299Z,100.00
2022-10-29T23:25:09.143Z,100.00
2022-10-29T23:30:15.049Z,100.00
2022-10-29T23:40:54.867Z,100.00
2022-10-29T23:46:04.116Z,100.00
2022-10-29T23:51:07.495Z,100.00
2022-10-29T23:56:18.447Z,100.00
